createdAt,value
2023-03-22T00:00:06.584Z,3.50
2023-03-22T00:02:59.159Z,3.50
2023-03-22T00:05:26.981Z,3.50
2023-03-22T00:07:58.301Z,3.50
2023-03-22T00:10:31.447Z,3.40
2023-03-22T00:13:01.073Z,3.40
2023-03-22T00:15:31.692Z,3.30
2023-03-22T00:18:02.238Z,3.20
2023-03-22T00:20:39.638Z,3.20
2023-03-22T00:23:11.859Z,3.10
2023-03-22T00:25:39.732Z,3.00
2023-03-22T00:28:07.677Z,2.90
2023-03-22T00:30:37.074Z,2.90
2023-03-22T00:33:06.741Z,2.90
2023-03-22T00:35:36.255Z,2.90
2023-03-22T00:38:06.249Z,2.90
2023-03-22T00:40:34.114Z,2.90
2023-03-22T00:43:02.151Z,2.98
2023-03-22T00:45:30.307Z,2.92
2023-03-22T00:47:58.129Z,2.92
2023-03-22T00:50:26.835Z,2.90
2023-03-22T00:52:54.702Z,2.90
2023-03-22T00:55:22.507Z,2.90
2023-03-22T00:57:51.045Z,2.92
2023-03-22T01:00:19.597Z,3.00
2023-03-22T01:02:47.611Z,3.10
2023-03-22T01:05:16.904Z,3.20
2023-03-22T01:07:46.274Z,3.20
2023-03-22T01:10:14.435Z,3.20
2023-03-22T01:12:42.554Z,3.20
2023-03-22T01:15:11.785Z,3.20
2023-03-22T01:17:40.407Z,3.16
2023-03-22T01:20:09.987Z,3.10
2023-03-22T01:22:37.969Z,2.98
2023-03-22T01:25:06.823Z,2.86
2023-03-22T01:27:35.154Z,2.80
2023-03-22T01:30:06.738Z,2.88
2023-03-22T01:32:40.818Z,2.90
2023-03-22T01:35:09.889Z,2.88
2023-03-22T01:37:40.891Z,2.88
2023-03-22T01:40:14.760Z,2.80
2023-03-22T01:42:42.896Z,2.80
2023-03-22T01:45:41.174Z,2.72
2023-03-22T01:48:24.250Z,2.70
2023-03-22T01:51:19.455Z,2.70
2023-03-22T01:53:56.205Z,2.70
2023-03-22T01:56:30.453Z,2.60
2023-03-22T01:59:01.155Z,2.60
2023-03-22T02:01:31.190Z,2.60
2023-03-22T02:04:09.466Z,2.70
2023-03-22T02:06:38.551Z,2.80
2023-03-22T02:09:11.863Z,2.88
2023-03-22T02:12:33.584Z,2.92
2023-03-22T02:15:17.225Z,3.00
2023-03-22T02:18:06.508Z,3.04
2023-03-22T02:21:24.969Z,3.00
2023-03-22T02:24:51.795Z,3.02
2023-03-22T02:27:50.390Z,3.00
2023-03-22T02:30:43.142Z,3.00
2023-03-22T02:33:46.767Z,3.00
2023-03-22T02:36:55.281Z,3.00
2023-03-22T02:39:47.242Z,2.90
2023-03-22T02:42:53.369Z,2.90
2023-03-22T02:45:56.666Z,2.80
2023-03-22T02:48:40.606Z,2.70
2023-03-22T02:51:26.398Z,2.70
2023-03-22T02:54:11.413Z,2.60
2023-03-22T02:56:52.554Z,2.50
2023-03-22T02:59:26.313Z,2.50
2023-03-22T03:02:01.766Z,2.42
2023-03-22T03:04:39.968Z,2.50
2023-03-22T03:07:16.411Z,2.60
2023-03-22T03:09:46.815Z,2.70
2023-03-22T03:12:35.106Z,2.80
2023-03-22T03:15:25.803Z,2.80
2023-03-22T03:18:27.049Z,2.80
2023-03-22T03:21:23.524Z,2.80
2023-03-22T03:24:12.488Z,2.80
2023-03-22T03:27:09.708Z,2.82
2023-03-22T03:29:54.782Z,2.82
2023-03-22T03:32:47.194Z,2.80
2023-03-22T03:35:28.455Z,2.80
2023-03-22T03:38:20.514Z,2.78
2023-03-22T03:40:55.794Z,2.80
2023-03-22T03:43:26.880Z,2.80
2023-03-22T03:45:55.817Z,2.90
2023-03-22T03:48:30.669Z,2.90
2023-03-22T03:51:02.045Z,3.00
2023-03-22T03:53:33.176Z,3.00
2023-03-22T03:56:01.553Z,3.04
2023-03-22T03:58:30.890Z,3.10
2023-03-22T04:01:00.810Z,3.10
2023-03-22T04:03:28.572Z,3.10
2023-03-22T04:05:56.860Z,3.16
2023-03-22T04:08:28.183Z,3.20
2023-03-22T04:10:56.714Z,3.20
2023-03-22T04:13:26.513Z,3.20
2023-03-22T04:16:01.085Z,3.20
2023-03-22T04:18:29.921Z,3.20
2023-03-22T04:20:59.357Z,3.10
2023-03-22T04:23:27.332Z,3.00
2023-03-22T04:26:00.987Z,2.90
2023-03-22T04:28:28.804Z,2.80
2023-03-22T04:30:58.531Z,2.70
2023-03-22T04:33:26.653Z,2.72
2023-03-22T04:35:56.853Z,2.78
2023-03-22T04:38:26.835Z,2.76
2023-03-22T04:40:55.470Z,2.70
2023-03-22T04:43:23.477Z,2.70
2023-03-22T04:45:54.816Z,2.62
2023-03-22T04:48:28.489Z,2.64
2023-03-22T04:50:58.014Z,2.70
2023-03-22T04:53:28.732Z,2.70
2023-03-22T04:55:57.732Z,2.80
2023-03-22T04:58:27.328Z,2.82
2023-03-22T05:00:56.174Z,2.90
2023-03-22T05:03:27.326Z,2.90
2023-03-22T05:06:02.307Z,2.82
2023-03-22T05:08:33.397Z,2.80
2023-03-22T05:11:12.730Z,2.76
2023-03-22T05:13:40.884Z,2.70
2023-03-22T05:16:10.754Z,2.70
2023-03-22T05:18:42.546Z,2.70
2023-03-22T05:21:15.850Z,2.70
2023-03-22T05:23:45.924Z,2.70
2023-03-22T05:26:15.938Z,2.80
2023-03-22T05:28:46.100Z,2.74
2023-03-22T05:31:17.662Z,2.70
2023-03-22T05:33:47.077Z,2.70
2023-03-22T05:36:14.784Z,2.80
2023-03-22T05:38:44.733Z,2.80
2023-03-22T05:41:15.338Z,2.80
2023-03-22T05:43:44.174Z,2.80
2023-03-22T05:46:12.639Z,2.90
2023-03-22T05:48:41.525Z,2.90
2023-03-22T05:51:17.450Z,2.90
2023-03-22T05:53:48.585Z,2.92
2023-03-22T05:56:16.909Z,2.96
2023-03-22T05:58:47.286Z,2.90
2023-03-22T06:01:20.558Z,2.90
2023-03-22T06:03:52.996Z,2.90
2023-03-22T06:06:20.844Z,2.90
2023-03-22T06:08:48.599Z,2.90
2023-03-22T06:11:16.581Z,2.90
2023-03-22T06:13:44.447Z,2.90
2023-03-22T06:16:12.605Z,2.90
2023-03-22T06:18:41.063Z,2.88
2023-03-22T06:21:09.655Z,2.80
2023-03-22T06:23:37.914Z,2.80
2023-03-22T06:26:07.048Z,2.80
2023-03-22T06:28:34.893Z,2.80
2023-03-22T06:31:08.968Z,2.88
2023-03-22T06:33:37.065Z,2.90
2023-03-22T06:36:06.464Z,2.90
2023-03-22T06:38:37.758Z,2.90
2023-03-22T06:41:06.082Z,2.90
2023-03-22T06:43:34.377Z,2.90
2023-03-22T06:46:02.280Z,2.90
2023-03-22T06:48:30.260Z,2.90
2023-03-22T06:51:00.792Z,2.90
2023-03-22T06:53:29.917Z,2.90
2023-03-22T06:55:58.021Z,2.96
2023-03-22T06:58:27.442Z,2.90
2023-03-22T07:00:58.815Z,2.90
2023-03-22T07:03:26.714Z,2.90
2023-03-22T07:06:07.220Z,2.90
2023-03-22T07:08:37.319Z,2.90
2023-03-22T07:11:06.300Z,2.90
2023-03-22T07:13:36.709Z,2.90
2023-03-22T07:16:05.457Z,2.98
2023-03-22T07:18:33.673Z,3.00
2023-03-22T07:21:02.177Z,3.00
2023-03-22T07:23:32.750Z,3.00
2023-03-22T07:26:04.093Z,3.00
2023-03-22T07:28:32.436Z,3.08
2023-03-22T07:31:10.094Z,3.08
2023-03-22T07:33:39.703Z,3.10
2023-03-22T07:36:09.572Z,3.20
2023-03-22T07:38:37.816Z,3.30
2023-03-22T07:41:06.193Z,3.30
2023-03-22T07:43:44.113Z,3.30
2023-03-22T07:46:19.660Z,3.40
2023-03-22T07:48:51.095Z,3.40
2023-03-22T07:51:25.295Z,3.40
2023-03-22T07:53:54.082Z,3.34
2023-03-22T07:56:24.887Z,3.30
2023-03-22T07:58:52.983Z,3.30
2023-03-22T08:01:21.653Z,3.22
2023-03-22T08:03:49.468Z,3.20
2023-03-22T08:06:19.476Z,3.20
2023-03-22T08:08:47.876Z,3.30
2023-03-22T08:11:16.665Z,3.26
2023-03-22T08:13:44.915Z,3.30
2023-03-22T08:16:12.768Z,3.30
2023-03-22T08:18:42.541Z,3.30
2023-03-22T08:21:14.731Z,3.40
2023-03-22T08:23:42.603Z,3.40
2023-03-22T08:26:11.249Z,3.46
2023-03-22T08:28:39.451Z,3.46
2023-03-22T08:31:17.122Z,3.40
2023-03-22T08:33:46.441Z,3.40
2023-03-22T08:36:19.589Z,3.40
2023-03-22T08:38:47.387Z,3.40
2023-03-22T08:41:16.286Z,3.40
2023-03-22T08:43:45.659Z,3.50
2023-03-22T08:46:14.640Z,3.50
2023-03-22T08:48:50.452Z,3.50
2023-03-22T08:51:22.576Z,3.50
2023-03-22T08:53:50.603Z,3.50
2023-03-22T08:56:21.626Z,3.50
2023-03-22T08:58:49.891Z,3.50
2023-03-22T09:01:18.614Z,3.50
2023-03-22T09:03:47.337Z,3.50
2023-03-22T09:06:16.383Z,3.50
2023-03-22T09:08:44.246Z,3.50
2023-03-22T09:11:13.206Z,3.50
2023-03-22T09:13:41.077Z,3.50
2023-03-22T09:16:12.034Z,3.50
2023-03-22T09:18:40.649Z,3.40
2023-03-22T09:21:11.959Z,3.40
2023-03-22T09:23:42.944Z,3.40
2023-03-22T09:26:11.342Z,3.40
2023-03-22T09:28:40.872Z,3.40
2023-03-22T09:31:12.059Z,3.40
2023-03-22T09:33:42.113Z,3.44
2023-03-22T09:36:14.619Z,3.50
2023-03-22T09:38:42.731Z,3.50
2023-03-22T09:41:41.785Z,3.50
2023-03-22T09:44:22.397Z,3.60
2023-03-22T09:46:55.146Z,3.60
2023-03-22T09:49:29.185Z,3.50
2023-03-22T09:52:00.609Z,3.50
2023-03-22T09:54:34.958Z,3.50
2023-03-22T09:57:42.718Z,3.50
2023-03-22T10:00:33.871Z,3.50
2023-03-22T10:03:29.186Z,3.56
2023-03-22T10:06:14.705Z,3.60
2023-03-22T10:09:34.146Z,3.60
2023-03-22T10:12:22.949Z,3.60
2023-03-22T10:15:24.134Z,3.60
2023-03-22T10:17:56.265Z,3.64
2023-03-22T10:20:44.386Z,3.70
2023-03-22T10:23:27.049Z,3.70
2023-03-22T10:26:00.338Z,3.70
2023-03-22T10:28:42.869Z,3.70
2023-03-22T10:31:18.737Z,3.70
2023-03-22T10:33:58.666Z,3.62
2023-03-22T10:36:35.168Z,3.62
2023-03-22T10:39:30.136Z,3.70
2023-03-22T10:42:14.047Z,3.70
2023-03-22T10:44:56.182Z,3.80
2023-03-22T10:48:07.053Z,3.82
2023-03-22T10:50:44.313Z,3.90
2023-03-22T10:53:50.109Z,3.80
2023-03-22T10:56:20.226Z,3.90
2023-03-22T10:58:52.528Z,3.90
2023-03-22T11:01:41.613Z,3.82
2023-03-22T11:04:16.718Z,3.80
2023-03-22T11:06:56.064Z,3.80
2023-03-22T11:09:32.862Z,3.80
2023-03-22T11:12:02.573Z,3.80
2023-03-22T11:14:44.693Z,3.82
2023-03-22T11:17:26.257Z,3.84
2023-03-22T11:20:09.920Z,3.80
2023-03-22T11:22:45.563Z,3.80
2023-03-22T11:25:45.880Z,3.88
2023-03-22T11:28:27.972Z,3.90
2023-03-22T11:31:14.566Z,3.90
2023-03-22T11:34:01.856Z,4.00
2023-03-22T11:36:30.343Z,4.00
2023-03-22T11:39:08.260Z,4.00
2023-03-22T11:41:40.360Z,4.02
2023-03-22T11:44:17.624Z,4.08
2023-03-22T11:46:55.203Z,4.10
2023-03-22T11:49:51.796Z,4.16
2023-03-22T11:52:27.035Z,4.20
2023-03-22T11:54:56.813Z,4.20
2023-03-22T11:57:31.946Z,4.24
2023-03-22T12:00:26.094Z,4.30
2023-03-22T12:03:05.622Z,4.36
2023-03-22T12:05:39.257Z,4.40
2023-03-22T12:08:36.672Z,4.40
2023-03-22T12:11:28.404Z,4.40
2023-03-22T12:14:18.454Z,4.40
2023-03-22T12:17:19.677Z,4.50
2023-03-22T12:20:04.034Z,4.50
2023-03-22T12:22:43.602Z,4.58
2023-03-22T12:25:17.886Z,4.56
2023-03-22T12:27:53.326Z,4.58
2023-03-22T12:30:42.115Z,4.60
2023-03-22T12:33:47.062Z,4.60
2023-03-22T12:36:26.610Z,4.60
2023-03-22T12:38:58.773Z,4.60
2023-03-22T12:41:41.941Z,4.60
2023-03-22T12:44:23.571Z,4.60
2023-03-22T12:47:23.755Z,4.60
2023-03-22T12:50:12.184Z,4.60
2023-03-22T12:52:46.791Z,4.70
2023-03-22T12:55:23.196Z,4.70
2023-03-22T12:57:54.813Z,4.70
2023-03-22T13:00:36.947Z,4.70
2023-03-22T13:03:29.091Z,4.70
2023-03-22T13:06:08.107Z,4.70
2023-03-22T13:09:28.503Z,4.70
2023-03-22T13:12:33.389Z,4.72
2023-03-22T13:15:41.305Z,4.80
2023-03-22T13:18:37.822Z,4.80
2023-03-22T13:21:17.040Z,4.82
2023-03-22T13:24:12.103Z,4.80
2023-03-22T13:26:49.574Z,4.80
2023-03-22T13:29:26.656Z,4.80
2023-03-22T13:32:03.164Z,4.70
2023-03-22T13:34:53.364Z,4.70
2023-03-22T13:37:42.521Z,4.78
2023-03-22T13:40:32.193Z,4.80
2023-03-22T13:43:32.440Z,4.90
2023-03-22T13:46:10.501Z,4.90
2023-03-22T13:48:48.291Z,4.90
2023-03-22T13:51:21.839Z,4.80
2023-03-22T13:54:16.689Z,4.80
2023-03-22T13:57:02.279Z,4.90
2023-03-22T14:00:11.967Z,4.90
2023-03-22T14:02:43.499Z,5.00
2023-03-22T14:05:22.431Z,5.00
2023-03-22T14:07:59.581Z,5.00
2023-03-22T14:10:47.339Z,5.00
2023-03-22T14:13:41.637Z,5.00
2023-03-22T14:16:32.008Z,5.10
2023-03-22T14:19:00.970Z,5.12
2023-03-22T14:21:43.513Z,5.20
